Time;durP1;ratioP1;P1;durP2;ratioP2;P2;SDS_P1;SDS_P2;PMS_P1;PMS_P2;Temp;Humidity;BMP_temperature;BMP_pressure;BME280_temperature;BME280_humidity;BME280_pressure;Samples;Min_cycle;Max_cycle;Signal;HPM_P1;HPM_P2
2021/09/29 00:01:37;;;;;;;7.13;4.75;;;15.30;73.70;;;15.43;58.68;97824.06;5045606;28;20049;-38
2021/09/29 00:04:05;;;;;;;7.03;5.35;;;15.40;73.60;;;15.44;58.78;97825.69;5045300;28;20052;-38
2021/09/29 00:06:33;;;;;;;8.15;5.95;;;15.40;73.60;;;15.42;58.90;97825.06;5045767;28;20060;-38
2021/09/29 00:09:01;;;;;;;8.57;5.25;;;15.30;74.00;;;15.41;58.89;97825.25;5045694;28;20079;-38
2021/09/29 00:11:30;;;;;;;6.40;4.95;;;15.30;74.30;;;15.40;58.94;97827.09;5045607;28;20057;-37
2021/09/29 00:13:58;;;;;;;7.18;5.80;;;15.20;74.50;;;15.39;59.08;97825.44;5046674;28;20056;-38
2021/09/29 00:16:26;;;;;;;6.43;5.70;;;15.20;74.80;;;15.39;59.09;97817.38;5045183;28;20055;-38
2021/09/29 00:18:54;;;;;;;8.82;5.18;;;15.20;74.80;;;15.41;58.93;97826.09;5045865;28;20047;-38
2021/09/29 00:21:22;;;;;;;8.05;5.68;;;15.20;74.60;;;15.43;58.79;97820.53;5006801;28;1132719;-38
2021/09/29 00:23:49;;;;;;;8.02;5.78;;;15.30;74.30;;;15.44;58.73;97822.19;5046118;28;20063;-38
2021/09/29 00:26:18;;;;;;;6.25;5.03;;;15.40;73.80;;;15.45;58.72;97821.16;5045570;28;20041;-38
2021/09/29 00:28:46;;;;;;;5.40;4.88;;;15.40;73.60;;;15.45;58.60;97830.06;5046049;28;20063;-38
2021/09/29 00:34:24;;;;;;;8.68;5.60;;;15.30;74.00;;;15.44;58.85;97819.50;5044889;28;20271;-38
2021/09/29 00:36:52;;;;;;;8.10;4.88;;;15.30;74.10;;;15.43;58.65;97817.84;5045909;28;20056;-38
2021/09/29 00:39:20;;;;;;;9.38;5.80;;;15.30;74.30;;;15.40;58.87;97819.06;5047372;28;20057;-38
2021/09/29 00:41:48;;;;;;;9.70;5.93;;;15.20;74.30;;;15.38;58.71;97817.59;5045720;28;20071;-37
2021/09/29 00:44:16;;;;;;;8.20;6.13;;;15.10;74.60;;;15.38;58.82;97810.38;5045933;28;20049;-38
2021/09/29 00:46:44;;;;;;;8.15;6.18;;;15.20;74.60;;;15.38;58.73;97804.19;5044771;28;20060;-38
2021/09/29 00:49:12;;;;;;;8.25;5.32;;;15.20;74.30;;;15.38;58.90;97810.38;5045110;28;20063;-38
2021/09/29 00:51:41;;;;;;;7.40;5.88;;;15.20;74.30;;;15.33;58.70;97813.63;5045600;28;20052;-38
2021/09/29 00:54:09;;;;;;;8.10;5.93;;;15.10;74.40;;;15.32;58.80;97809.25;5046620;28;20061;-37
2021/09/29 00:56:37;;;;;;;9.95;6.53;;;15.00;74.70;;;15.25;59.08;97807.50;5045101;28;20243;-38
2021/09/29 00:59:06;;;;;;;8.85;6.50;;;15.00;75.30;;;15.19;59.46;97802.91;5045352;28;20065;-38
2021/09/29 01:01:33;;;;;;;7.47;5.63;;;14.80;76.00;;;15.12;59.66;97803.66;5047376;28;20061;-38
2021/09/29 01:04:02;;;;;;;10.73;5.80;;;14.80;76.50;;;15.06;59.82;97809.75;5045630;28;20049;-38
2021/09/29 01:06:38;;;;;;;8.32;5.20;;;14.80;77.00;;;15.01;60.02;97809.47;5043775;28;20053;-38
2021/09/29 01:09:27;;;;;;;7.05;5.50;;;14.70;77.50;;;15.01;59.85;97805.97;5044323;28;20048;-38
2021/09/29 01:12:02;;;;;;;8.25;5.32;;;14.70;77.30;;;15.01;59.93;97797.94;5045287;28;20048;-37
2021/09/29 01:14:45;;;;;;;6.32;4.88;;;14.70;76.70;;;15.04;59.83;97789.50;5044564;28;20059;-37
2021/09/29 01:17:17;;;;;;;7.13;5.22;;;14.80;76.60;;;15.05;59.80;97792.00;5045407;28;20369;-38
2021/09/29 01:20:15;;;;;;;9.05;5.50;;;14.80;76.40;;;15.04;59.74;97803.72;5044688;28;20056;-38
2021/09/29 01:23:07;;;;;;;8.32;5.07;;;14.80;76.30;;;14.99;59.85;97795.44;5046554;28;20343;-37
2021/09/29 01:25:59;;;;;;;6.57;5.03;;;14.80;76.10;;;15.02;59.83;97795.03;5045956;28;20240;-37
2021/09/29 01:28:31;;;;;;;6.47;5.03;;;14.80;75.80;;;15.02;59.57;97808.44;5045750;28;20099;-38
2021/09/29 01:31:01;;;;;;;7.05;4.65;;;14.80;75.70;;;15.03;59.68;97798.56;5044972;28;20357;-38
2021/09/29 01:33:33;;;;;;;8.27;5.35;;;14.90;75.60;;;15.06;59.67;97809.75;5043921;28;20057;-38
2021/09/29 01:36:01;;;;;;;7.38;4.60;;;15.00;75.20;;;15.11;59.33;97810.03;5044925;28;20070;-38
2021/09/29 01:38:31;;;;;;;6.97;4.75;;;15.00;74.70;;;15.12;59.30;97797.44;5036724;28;20064;-38
2021/09/29 01:40:58;;;;;;;7.05;5.00;;;15.10;74.60;;;15.15;59.12;97797.91;5025425;28;20061;-38
2021/09/29 01:43:29;;;;;;;6.20;4.75;;;15.10;74.30;;;15.19;59.29;97802.91;5023849;28;20037;-38
2021/09/29 01:45:57;;;;;;;5.88;4.38;;;15.10;74.30;;;15.23;59.29;97804.19;5025122;28;20046;-38
2021/09/29 01:48:25;;;;;;;5.72;4.85;;;15.10;74.40;;;15.23;59.11;97805.00;5023348;28;20063;-38
2021/09/29 01:50:59;;;;;;;6.53;4.53;;;15.10;74.40;;;15.20;59.02;97800.03;5024420;28;20358;-38
2021/09/29 01:53:32;;;;;;;6.88;4.90;;;15.00;74.30;;;15.19;58.95;97801.03;5024066;28;20061;-38
2021/09/29 01:56:01;;;;;;;5.75;3.97;;;15.00;74.50;;;15.17;59.02;97808.44;5024985;28;20233;-38
2021/09/29 01:58:32;;;;;;;9.73;4.82;;;15.00;74.40;;;15.15;59.06;97805.94;5025106;28;20057;-38
2021/09/29 02:01:01;;;;;;;6.88;4.28;;;15.10;74.40;;;15.16;59.16;97801.44;5026810;28;20053;-38
2021/09/29 02:03:29;;;;;;;5.68;4.75;;;15.10;74.10;;;15.18;58.86;97796.72;5024938;28;20045;-38
2021/09/29 02:05:57;;;;;;;7.13;4.45;;;15.10;74.10;;;15.18;59.17;97795.88;5007722;28;20276;-38
2021/09/29 02:08:25;;;;;;;5.82;4.60;;;15.10;74.20;;;15.20;59.08;97799.19;5024889;28;20053;-38
2021/09/29 02:10:53;;;;;;;6.47;4.53;;;15.10;74.10;;;15.19;58.95;97798.34;5025019;28;20360;-37
2021/09/29 02:13:21;;;;;;;7.30;4.70;;;15.20;73.80;;;15.20;59.04;97791.13;5024576;28;20065;-38
2021/09/29 02:15:48;;;;;;;6.68;4.40;;;15.10;73.80;;;15.19;58.99;97798.34;5025132;28;20776;-38
2021/09/29 02:18:16;;;;;;;5.05;4.20;;;15.10;73.80;;;15.18;58.97;97793.19;5026653;28;20049;-38
2021/09/29 02:20:44;;;;;;;5.32;4.60;;;15.10;73.70;;;15.16;58.66;97796.06;5026269;28;20053;-37
2021/09/29 02:23:12;;;;;;;7.30;4.88;;;15.10;73.60;;;15.14;58.72;97806.13;5024352;28;20059;-38
2021/09/29 02:25:40;;;;;;;6.28;4.22;;;15.00;73.90;;;15.09;58.94;97809.38;5024851;28;20056;-37
2021/09/29 02:28:08;;;;;;;6.68;4.68;;;14.90;74.20;;;15.09;58.92;97804.00;5024924;28;20049;-37
2021/09/29 02:30:36;;;;;;;6.43;4.32;;;15.00;74.20;;;15.10;59.17;97823.59;5026209;28;20247;-37
2021/09/29 02:33:04;;;;;;;9.82;5.10;;;14.90;74.40;;;15.08;59.12;97828.31;5022964;28;20049;-37
2021/09/29 02:35:32;;;;;;;7.97;4.22;;;14.90;74.30;;;15.08;59.09;97822.97;5023476;28;20057;-38
2021/09/29 02:38:00;;;;;;;6.15;4.05;;;14.90;74.30;;;15.08;59.23;97823.81;5024309;28;20056;-38
2021/09/29 02:40:27;;;;;;;8.25;4.72;;;15.00;74.40;;;15.09;59.27;97832.69;5025174;28;20065;-39
2021/09/29 02:42:55;;;;;;;8.02;4.55;;;15.00;74.20;;;15.10;58.98;97826.28;5024897;28;20060;-39
2021/09/29 02:45:23;;;;;;;7.32;4.72;;;15.00;74.10;;;15.11;59.19;97826.09;5022890;28;20055;-38
2021/09/29 02:47:51;;;;;;;7.10;5.38;;;15.00;74.00;;;15.13;59.05;97821.38;5023583;28;20064;-38
2021/09/29 02:50:19;;;;;;;5.63;4.70;;;15.00;73.90;;;15.11;58.98;97820.75;5025172;28;20247;-38
2021/09/29 02:52:47;;;;;;;5.82;5.10;;;15.00;74.00;;;15.11;58.93;97822.59;5024576;28;20290;-38
2021/09/29 02:55:15;;;;;;;6.20;3.78;;;15.00;73.80;;;15.07;58.91;97834.72;5024582;28;20235;-38
2021/09/29 02:57:42;;;;;;;5.65;4.47;;;15.00;73.80;;;15.07;59.05;97824.81;5024288;28;20052;-38
2021/09/29 03:00:13;;;;;;;9.95;4.25;;;15.00;73.70;;;15.09;59.06;97822.78;5025960;28;20041;-38
2021/09/29 03:02:42;;;;;;;5.95;4.40;;;15.00;73.70;;;15.05;58.98;97826.03;5025612;28;20067;-38
2021/09/29 03:05:10;;;;;;;6.15;4.35;;;14.90;74.10;;;15.03;59.08;97825.38;5025333;28;20057;-38
2021/09/29 03:07:38;;;;;;;6.18;5.05;;;14.90;74.30;;;15.01;58.94;97832.78;5023835;28;20255;-38
2021/09/29 03:10:06;;;;;;;8.80;5.22;;;14.80;74.30;;;14.96;59.14;97827.97;5026608;28;20034;-38
2021/09/29 03:12:34;;;;;;;6.15;4.28;;;14.80;75.10;;;14.90;59.13;97834.06;5027930;28;20056;-38
2021/09/29 03:15:02;;;;;;;7.10;4.70;;;14.70;74.80;;;14.81;59.27;97838.69;5028840;28;20075;-38
2021/09/29 03:17:30;;;;;;;7.32;5.40;;;14.60;75.20;;;14.75;59.46;97842.06;5044493;28;20057;-38
2021/09/29 03:19:58;;;;;;;5.80;4.80;;;14.50;75.20;;;14.73;59.29;97836.91;5028282;28;20053;-38
2021/09/29 03:22:26;;;;;;;6.65;4.88;;;14.50;75.20;;;14.74;59.32;97840.44;5027815;28;20055;-38
2021/09/29 03:24:54;;;;;;;6.35;4.15;;;14.50;75.30;;;14.71;59.50;97838.97;5028333;28;20050;-38
2021/09/29 03:27:21;;;;;;;6.03;4.35;;;14.50;75.30;;;14.71;59.45;97840.78;5028825;28;20057;-38
2021/09/29 03:29:49;;;;;;;6.20;4.63;;;14.50;75.30;;;14.70;59.49;97849.84;5028646;28;20107;-38
2021/09/29 03:32:17;;;;;;;8.23;4.90;;;14.50;75.30;;;14.67;59.49;97851.03;5027698;28;20256;-38
2021/09/29 03:34:46;;;;;;;6.43;4.00;;;14.50;75.30;;;14.65;59.56;97863.78;5027820;28;20060;-38
2021/09/29 03:37:13;;;;;;;7.63;4.55;;;14.40;75.60;;;14.60;59.82;97858.16;5028342;28;20053;-38
2021/09/29 03:39:41;;;;;;;5.90;4.15;;;14.40;76.00;;;14.60;59.80;97855.47;5027147;28;20068;-38
2021/09/29 03:42:09;;;;;;;8.30;4.22;;;14.40;76.10;;;14.59;59.79;97852.97;5026641;28;20271;-38
2021/09/29 03:44:37;;;;;;;5.90;4.15;;;14.40;76.10;;;14.54;59.81;97853.50;5028205;28;20060;-38
2021/09/29 03:47:05;;;;;;;5.90;4.07;;;14.20;76.40;;;14.48;60.08;97854.19;5028614;28;20053;-38
2021/09/29 03:49:33;;;;;;;6.75;3.50;;;14.20;76.80;;;14.45;60.05;97849.22;5029464;28;20046;-38
2021/09/29 03:52:00;;;;;;;4.78;3.65;;;14.10;76.90;;;14.45;60.38;97855.41;5026464;28;20053;-38
2021/09/29 03:54:28;;;;;;;6.88;3.72;;;14.20;76.60;;;14.45;60.30;97858.06;5027738;28;20393;-38
2021/09/29 03:56:56;;;;;;;6.35;3.80;;;14.30;76.70;;;14.43;60.51;97856.59;5026721;28;20057;-38
2021/09/29 03:59:24;;;;;;;4.22;3.78;;;14.30;76.80;;;14.43;60.48;97864.63;5027038;28;20386;-38
2021/09/29 04:01:52;;;;;;;4.28;3.38;;;14.30;76.80;;;14.43;60.53;97857.41;5027801;28;20259;-38
2021/09/29 04:04:20;;;;;;;4.32;3.20;;;14.30;76.80;;;14.44;60.56;97860.94;5026420;28;20052;-38
2021/09/29 04:06:48;;;;;;;4.15;3.45;;;14.30;77.10;;;14.43;60.68;97867.31;5025988;28;20370;-38
2021/09/29 04:09:16;;;;;;;4.80;3.42;;;14.20;77.10;;;14.43;60.65;97865.47;5026949;28;20255;-38
2021/09/29 04:11:44;;;;;;;4.55;3.75;;;14.30;77.10;;;14.44;60.84;97861.75;5026984;28;20063;-38
2021/09/29 04:14:12;;;;;;;5.03;3.33;;;14.30;77.30;;;14.45;60.66;97863.44;5027813;28;20064;-38
2021/09/29 04:16:40;;;;;;;4.72;3.72;;;14.30;77.50;;;14.47;61.00;97857.91;5028050;28;20050;-38
2021/09/29 04:19:08;;;;;;;4.65;3.92;;;14.30;77.20;;;14.48;60.94;97867.59;5027255;28;20060;-38
2021/09/29 04:21:37;;;;;;;5.20;3.10;;;14.40;77.00;;;14.50;60.89;97868.22;5027425;28;20053;-38
2021/09/29 04:24:05;;;;;;;4.07;3.10;;;14.50;76.80;;;14.48;61.02;97868.44;5027439;28;20049;-38
2021/09/29 04:26:33;;;;;;;4.40;3.53;;;14.40;76.80;;;14.50;60.96;97874.44;5025425;28;20086;-38
2021/09/29 04:29:01;;;;;;;5.25;2.92;;;14.40;76.80;;;14.51;61.03;97870.75;5027194;28;20061;-38
2021/09/29 04:31:29;;;;;;;5.82;3.28;;;14.40;76.90;;;14.52;60.81;97874.25;5026404;28;20079;-38
2021/09/29 04:33:57;;;;;;;5.30;3.00;;;14.40;76.90;;;14.54;60.91;97873.06;5026941;28;20053;-38
2021/09/29 04:36:25;;;;;;;5.18;3.03;;;14.40;76.90;;;14.52;60.83;97872.41;5025946;28;20057;-38
2021/09/29 04:38:53;;;;;;;5.60;3.28;;;14.40;77.00;;;14.53;60.92;97884.78;5025457;28;20064;-38
2021/09/29 04:41:23;;;;;;;6.10;3.55;;;14.40;77.10;;;14.49;60.97;97885.34;5025916;28;20272;-37
2021/09/29 04:43:51;;;;;;;3.70;3.15;;;14.30;77.30;;;14.47;61.20;97885.50;5026788;28;20263;-38
2021/09/29 04:46:19;;;;;;;6.63;3.53;;;14.30;77.30;;;14.45;61.11;97892.06;5026245;28;20046;-38
2021/09/29 04:48:47;;;;;;;3.88;2.90;;;14.30;77.40;;;14.46;61.01;97896.41;5027377;28;20051;-38
2021/09/29 04:51:15;;;;;;;4.22;3.15;;;14.30;77.50;;;14.43;61.27;97892.25;5028317;28;20048;-38
2021/09/29 04:53:42;;;;;;;4.30;3.30;;;14.30;77.70;;;14.45;61.14;97892.06;5027901;28;20423;-38
2021/09/29 04:56:11;;;;;;;3.92;2.97;;;14.30;77.70;;;14.44;61.04;97891.22;5025844;28;20627;-38
2021/09/29 04:58:39;;;;;;;5.60;3.60;;;14.30;77.60;;;14.43;61.08;97886.88;5025661;28;20049;-38
2021/09/29 05:01:07;;;;;;;5.20;3.13;;;14.30;77.60;;;14.42;61.16;97893.25;5026309;28;20061;-38
2021/09/29 05:03:36;;;;;;;7.97;3.28;;;14.30;77.70;;;14.42;61.24;97900.44;5025538;28;20362;-38
2021/09/29 05:06:04;;;;;;;5.65;3.00;;;14.30;77.60;;;14.40;61.06;97899.78;5025289;28;20041;-38
2021/09/29 05:08:38;;;;;;;3.30;2.60;;;14.30;77.60;;;14.38;61.20;97898.16;5026228;28;20051;-38
2021/09/29 05:11:22;;;;;;;3.38;2.80;;;14.20;77.50;;;14.35;61.11;97900.34;5024387;28;20057;-38
2021/09/29 05:13:51;;;;;;;9.60;3.72;;;14.20;77.90;;;14.32;61.21;97904.19;5026643;28;20053;-38
2021/09/29 05:16:19;;;;;;;3.67;3.08;;;14.10;77.80;;;14.29;61.13;97899.22;5025293;28;20054;-38
2021/09/29 05:18:47;;;;;;;5.40;2.85;;;14.00;77.90;;;14.27;61.19;97901.25;5025994;28;20239;-38
2021/09/29 05:21:14;;;;;;;4.45;3.00;;;14.00;78.20;;;14.24;61.27;97901.59;5026029;28;20385;-38
2021/09/29 05:23:43;;;;;;;5.75;3.15;;;14.00;78.50;;;14.22;61.29;97902.78;5025764;28;20513;-38
2021/09/29 05:26:11;;;;;;;4.60;3.08;;;13.90;78.50;;;14.20;61.30;97905.63;5025745;28;20053;-38
2021/09/29 05:28:41;;;;;;;7.57;3.60;;;13.90;78.70;;;14.16;61.36;97902.47;5025983;28;20464;-38
2021/09/29 05:31:09;;;;;;;3.35;2.75;;;13.90;79.00;;;14.13;61.39;97896.63;5026628;28;20259;-38
2021/09/29 05:33:36;;;;;;;4.00;2.97;;;13.90;78.80;;;14.13;61.46;97899.31;5024926;28;20515;-38
2021/09/29 05:36:05;;;;;;;5.53;2.70;;;13.90;78.80;;;14.11;61.41;97894.16;5027950;28;20593;-38
2021/09/29 05:38:32;;;;;;;5.18;2.65;;;13.90;78.70;;;14.11;61.46;97899.50;5025626;28;20057;-38
2021/09/29 05:41:00;;;;;;;4.85;2.75;;;13.90;78.70;;;14.11;61.61;97901.34;5026788;28;20053;-38
2021/09/29 05:43:28;;;;;;;3.25;2.78;;;13.80;78.70;;;14.10;61.57;97905.88;5026824;28;20355;-38
2021/09/29 05:45:58;;;;;;;4.55;2.42;;;13.90;78.80;;;14.10;61.56;97902.34;5026669;28;20045;-38
2021/09/29 05:48:25;;;;;;;3.70;2.78;;;13.90;78.70;;;14.10;61.66;97905.88;5025374;28;20484;-38
2021/09/29 05:50:54;;;;;;;2.85;2.08;;;14.00;78.40;;;14.10;61.62;97907.72;5026025;28;20057;-38
2021/09/29 05:53:22;;;;;;;5.00;2.60;;;14.00;77.90;;;14.13;61.45;97913.56;5025008;28;20049;-37
2021/09/29 05:55:50;;;;;;;3.35;2.50;;;14.00;77.70;;;14.15;61.31;97916.88;5040696;28;20366;-38
2021/09/29 05:58:19;;;;;;;5.18;2.53;;;14.10;77.40;;;14.18;61.46;97913.84;5026157;28;20350;-37
2021/09/29 06:00:47;;;;;;;5.20;3.35;;;14.10;77.30;;;14.22;61.29;97919.66;5025622;28;20065;-38
2021/09/29 06:03:18;;;;;;;4.18;2.63;;;14.10;77.30;;;14.26;61.25;97918.31;5026124;28;20057;-37
2021/09/29 06:05:48;;;;;;;4.68;2.47;;;14.20;77.10;;;14.29;61.16;97920.63;5026341;28;20049;-38
2021/09/29 06:08:16;;;;;;;2.92;2.00;;;14.20;76.60;;;14.31;61.07;97929.31;5023619;28;20051;-38
2021/09/29 06:10:44;;;;;;;4.70;2.83;;;14.20;77.10;;;14.34;61.07;97931.63;5026319;28;20282;-38
2021/09/29 06:13:12;;;;;;;3.83;3.38;;;14.30;76.80;;;14.38;60.83;97927.59;5025790;28;20596;-38
2021/09/29 06:15:43;;;;;;;4.32;2.75;;;14.30;76.60;;;14.43;60.71;97929.75;5026052;28;20537;-38
2021/09/29 06:18:15;;;;;;;3.50;2.00;;;14.40;76.20;;;14.44;60.59;97939.44;5026121;28;20407;-37
2021/09/29 06:20:52;;;;;;;4.55;2.60;;;14.30;76.10;;;14.45;60.49;97934.94;5024451;28;20057;-37
2021/09/29 06:23:20;;;;;;;3.30;2.25;;;14.40;76.00;;;14.47;60.37;97935.56;5023496;28;20053;-37
2021/09/29 06:25:49;;;;;;;4.97;2.42;;;14.30;76.10;;;14.46;60.21;97940.09;5025257;28;20225;-37
2021/09/29 06:28:17;;;;;;;4.22;2.08;;;14.30;75.80;;;14.46;60.31;97942.78;5025156;28;20243;-37
2021/09/29 06:30:45;;;;;;;4.72;2.35;;;14.30;75.60;;;14.47;60.12;97943.63;5025190;28;20053;-37
2021/09/29 06:33:14;;;;;;;4.78;2.40;;;14.40;75.50;;;14.50;60.23;97943.25;5022778;28;20053;-37
2021/09/29 06:35:42;;;;;;;4.47;2.33;;;14.40;75.70;;;14.49;60.44;97946.94;5024067;28;20053;-37
2021/09/29 06:38:10;;;;;;;3.40;2.45;;;14.40;75.90;;;14.51;60.54;97945.75;5025396;28;20239;-37
2021/09/29 06:40:38;;;;;;;4.32;2.65;;;14.50;76.30;;;14.56;60.73;97948.75;5026412;28;20449;-37
2021/09/29 06:43:06;;;;;;;4.80;2.88;;;14.50;76.40;;;14.59;60.89;97946.75;5024497;28;20057;-37
2021/09/29 06:45:35;;;;;;;5.60;2.42;;;14.50;76.50;;;14.61;60.98;97950.91;5027318;28;20065;-37
2021/09/29 06:48:03;;;;;;;6.13;2.78;;;14.60;76.50;;;14.65;61.13;97951.38;5029161;28;20049;-37
2021/09/29 06:50:31;;;;;;;4.55;2.95;;;14.60;76.70;;;14.72;61.08;97952.31;5029275;28;20263;-37
2021/09/29 06:52:59;;;;;;;5.30;3.17;;;14.70;76.70;;;14.76;61.05;97954.47;5029024;28;20352;-37
2021/09/29 06:55:27;;;;;;;6.95;3.10;;;14.70;76.70;;;14.83;61.00;97954.59;5028886;28;20058;-36
2021/09/29 06:57:56;;;;;;;4.78;2.45;;;14.80;76.40;;;14.86;60.91;97956.88;5027302;28;20061;-37
2021/09/29 07:00:25;;;;;;;4.57;2.38;;;14.80;75.80;;;14.85;60.69;97949.88;5028468;28;20057;-37
2021/09/29 07:02:53;;;;;;;4.90;2.75;;;14.80;76.00;;;14.88;60.60;97954.03;5028504;28;20365;-37
2021/09/29 07:05:22;;;;;;;3.92;2.50;;;14.80;75.90;;;14.90;60.63;97952.81;5027546;28;20051;-37
2021/09/29 07:07:55;;;;;;;4.75;1.98;;;14.80;76.00;;;14.90;60.48;97946.63;5027963;28;20052;-37
2021/09/29 07:10:24;;;;;;;3.60;2.45;;;14.80;75.90;;;14.92;60.45;97942.75;5027633;28;20056;-37
2021/09/29 07:12:54;;;;;;;4.32;2.03;;;14.80;75.70;;;14.95;60.13;97945.09;5027910;28;20061;-37
2021/09/29 07:15:22;;;;;;;2.92;2.25;;;14.90;75.60;;;14.97;60.14;97942.22;5028948;28;20072;-37
2021/09/29 07:17:55;;;;;;;3.53;2.10;;;14.90;76.50;;;14.99;60.16;97937.50;5027903;28;20363;-38
2021/09/29 07:20:24;;;;;;;3.92;2.15;;;14.90;75.30;;;15.01;59.91;97935.47;5028733;28;20291;-38
2021/09/29 07:22:53;;;;;;;4.35;2.90;;;15.00;75.00;;;15.03;60.07;97944.19;5027808;28;20065;-38
2021/09/29 07:25:21;;;;;;;3.90;1.75;;;15.00;75.00;;;15.05;59.72;97942.16;5027050;28;20053;-38
2021/09/29 07:27:49;;;;;;;4.82;2.42;;;15.00;74.50;;;15.08;59.51;97941.78;5028167;28;20241;-38
2021/09/29 07:30:17;;;;;;;3.92;1.92;;;15.00;73.90;;;15.10;59.15;97945.13;5027924;28;20059;-38
2021/09/29 07:32:46;;;;;;;5.03;2.10;;;15.10;73.80;;;15.11;58.90;97946.78;5028353;28;20063;-38
2021/09/29 07:35:14;;;;;;;2.65;1.70;;;15.10;73.10;;;15.11;58.97;97944.09;5027051;28;20049;-38
2021/09/29 07:37:42;;;;;;;4.97;1.65;;;15.20;72.50;;;15.10;58.59;97947.81;5027193;28;20192;-38
2021/09/29 07:40:11;;;;;;;3.40;1.92;;;15.20;71.20;;;15.14;58.40;97946.41;5028571;28;20367;-39
2021/09/29 07:42:39;;;;;;;3.65;1.80;;;15.20;71.80;;;15.21;58.38;97951.03;5027837;28;20056;-37
2021/09/29 07:45:09;;;;;;;3.05;1.63;;;15.30;72.00;;;15.25;58.21;97958.53;5028244;28;20068;-37
2021/09/29 07:47:37;;;;;;;3.15;1.27;;;15.30;71.30;;;15.27;58.08;97951.13;5027610;28;20053;-37
2021/09/29 07:50:08;;;;;;;4.30;1.80;;;15.30;71.50;;;15.32;58.10;97954.09;5026494;28;20073;-37
2021/09/29 07:52:37;;;;;;;2.60;1.40;;;15.40;71.60;;;15.35;58.02;97953.75;5025435;28;20251;-36
2021/09/29 07:55:06;;;;;;;2.67;1.80;;;15.40;71.70;;;15.41;57.98;97948.66;5026584;28;20061;-37
2021/09/29 07:57:44;;;;;;;4.68;2.00;;;15.50;71.70;;;15.44;58.16;97949.13;5027902;28;20067;-36
2021/09/29 08:00:18;;;;;;;2.17;1.60;;;15.50;71.90;;;15.47;58.05;97953.25;5046629;28;20048;-36
2021/09/29 08:02:48;;;;;;;4.88;2.70;;;15.50;71.70;;;15.55;58.22;97947.84;5060637;28;20056;-36
2021/09/29 08:05:20;;;;;;;3.45;1.75;;;15.60;71.80;;;15.58;58.06;97950.13;5055044;28;20354;-36
2021/09/29 08:08:03;;;;;;;2.20;1.98;;;15.60;71.80;;;15.58;57.68;97952.81;5062850;28;20061;-37
2021/09/29 08:10:35;;;;;;;3.83;1.95;;;15.60;71.20;;;15.57;57.83;97948.47;5060062;28;20053;-38
2021/09/29 08:13:03;;;;;;;2.50;1.75;;;15.50;71.30;;;15.57;57.75;97948.47;5045300;28;20196;-37
2021/09/29 08:15:31;;;;;;;3.90;2.08;;;15.50;71.30;;;15.61;57.81;97940.88;5042387;28;20255;-37
2021/09/29 08:17:59;;;;;;;3.25;1.40;;;15.60;71.20;;;15.61;57.57;97944.41;5044921;28;20435;-37
2021/09/29 08:20:28;;;;;;;4.38;2.55;;;15.60;71.10;;;15.66;57.67;97946.50;5047747;28;20063;-37
2021/09/29 08:23:03;;;;;;;2.88;1.55;;;15.70;71.30;;;15.67;57.54;97945.50;5045072;28;20053;-38
2021/09/29 08:33:20;;;;;;;2.00;1.52;;;15.80;69.40;;;15.87;57.00;97949.28;5045801;28;20212;-38
2021/09/29 08:43:47;;;;;;;4.57;1.35;;;16.00;67.90;;;16.02;55.37;97951.13;5046338;28;20045;-38
2021/09/29 08:46:23;;;;;;;1.50;1.10;;;16.10;67.60;;;16.04;54.55;97944.53;5046070;28;20076;-38
2021/09/29 08:54:15;;;;;;;5.30;2.05;;;16.30;66.00;;;16.25;52.88;97964.41;5044404;28;20260;-37
2021/09/29 09:16:35;;;;;;;2.97;1.40;;;17.00;62.90;;;16.86;51.22;97951.38;5045284;28;20061;-37
2021/09/29 09:19:07;;;;;;;3.22;1.58;;;17.00;60.60;;;16.97;52.31;97949.22;5044680;28;20053;-37
2021/09/29 09:22:00;;;;;;;3.47;1.73;;;17.10;62.40;;;17.01;50.00;97953.19;5044110;28;20057;-38
2021/09/29 09:24:33;;;;;;;3.08;1.30;;;17.20;61.20;;;17.09;51.38;97940.41;5044390;28;20057;-38
2021/09/29 09:27:08;;;;;;;1.92;1.45;;;17.30;61.20;;;17.22;51.76;97941.53;5045684;28;20049;-38
2021/09/29 09:29:50;;;;;;;2.92;1.63;;;17.50;61.80;;;17.29;51.08;97935.19;5046461;28;20049;-38
2021/09/29 09:32:24;;;;;;;4.07;1.10;;;17.60;60.40;;;17.32;51.35;97933.94;5043342;28;20240;-38
2021/09/29 09:35:05;;;;;;;1.92;1.38;;;17.50;61.50;;;17.28;51.07;97930.00;5044311;28;20055;-37
2021/09/29 09:37:33;;;;;;;4.05;1.23;;;17.50;60.00;;;17.40;51.36;97932.97;5045539;28;20065;-38
2021/09/29 09:40:21;;;;;;;2.47;1.20;;;17.60;61.50;;;17.46;51.28;97932.16;5044247;28;20061;-38
2021/09/29 09:42:56;;;;;;;2.92;1.30;;;17.70;60.00;;;17.48;51.26;97930.09;5045569;28;20061;-38
2021/09/29 09:45:41;;;;;;;4.22;1.23;;;17.70;61.00;;;17.47;47.93;97939.22;5043962;28;20041;-38
2021/09/29 09:48:27;;;;;;;1.92;1.25;;;17.60;54.90;;;17.40;46.97;97935.66;5045084;28;20045;-38
2021/09/29 09:51:07;;;;;;;10.15;1.90;;;17.70;54.70;;;17.47;47.06;97934.66;5046001;28;20048;-38
2021/09/29 09:53:35;;;;;;;2.00;1.20;;;17.70;56.20;;;17.53;49.00;97933.03;5045300;28;20057;-38
2021/09/29 09:56:20;;;;;;;1.10;0.95;;;17.70;58.60;;;17.56;47.72;97926.41;5045911;28;20239;-38
2021/09/29 09:58:52;;;;;;;1.95;1.30;;;17.70;55.60;;;17.40;45.14;97922.19;5043961;28;20059;-38
2021/09/29 10:01:24;;;;;;;4.85;1.30;;;17.70;53.60;;;17.50;47.02;97919.97;5046512;28;20045;-38
2021/09/29 10:03:52;;;;;;;2.78;1.25;;;17.70;55.90;;;17.53;46.81;97930.34;5045074;28;20047;-38
2021/09/29 10:06:22;;;;;;;2.10;1.20;;;17.80;55.60;;;17.63;47.02;97916.53;5043942;28;20045;-38
2021/09/29 10:09:01;;;;;;;4.60;1.83;;;17.90;55.90;;;17.71;47.33;97913.66;5044629;28;20063;-38
2021/09/29 10:11:37;;;;;;;3.10;1.13;;;17.90;56.50;;;17.76;46.04;97911.22;5045030;28;20080;-38
2021/09/29 10:15:00;;;;;;;3.00;1.10;;;18.10;54.40;;;17.83;45.83;97912.03;5045972;28;20063;-38
2021/09/29 10:28:12;;;;;;;4.28;1.05;;;17.90;55.80;;;17.84;47.20;97905.69;5047217;28;20047;-38
2021/09/29 10:30:59;;;;;;;1.95;1.20;;;18.00;55.90;;;17.91;47.06;97897.59;5047685;28;20053;-38
2021/09/29 10:33:28;;;;;;;2.47;1.08;;;18.10;56.20;;;17.94;46.85;97905.28;5047035;28;20060;-38
2021/09/29 10:41:26;;;;;;;2.28;1.20;;;18.10;55.50;;;18.03;46.42;97903.22;5049946;28;20228;-38
2021/09/29 10:44:20;;;;;;;1.65;1.13;;;18.20;55.60;;;18.08;46.69;97900.78;5049424;28;20052;-38
2021/09/29 10:46:54;;;;;;;3.03;1.20;;;18.20;56.00;;;18.10;46.80;97904.91;5048553;28;20080;-38
2021/09/29 10:52:33;;;;;;;3.50;2.20;;;18.30;55.60;;;18.15;46.82;97900.81;5050001;28;20071;-38
2021/09/29 11:29:52;;;;;;;1.20;0.70;;;18.30;55.30;;;18.24;46.48;97859.16;5047079;28;20056;-38
2021/09/29 11:34:56;;;;;;;1.08;0.80;;;18.50;55.10;;;18.40;46.30;97860.63;5047366;28;20061;-38
2021/09/29 11:48:58;;;;;;;1.48;0.90;;;18.80;54.40;;;18.52;45.79;97860.84;5048502;28;20047;-38
2021/09/29 12:11:41;;;;;;;1.58;0.90;;;19.10;52.80;;;18.83;44.87;97826.00;5047252;28;20045;-38
2021/09/29 12:14:18;;;;;;;2.40;0.73;;;19.10;53.60;;;18.80;44.40;97839.09;5045294;28;20048;-38
2021/09/29 12:16:50;;;;;;;2.10;0.90;;;19.00;52.90;;;18.80;44.25;97837.22;5048632;28;20243;-38
2021/09/29 12:19:24;;;;;;;3.35;1.05;;;19.00;52.90;;;18.80;44.48;97829.13;5047344;28;20381;-38
2021/09/29 12:22:06;;;;;;;1.48;0.82;;;19.10;52.90;;;18.86;44.82;97831.00;5045932;28;20052;-38
2021/09/29 12:25:15;;;;;;;1.55;0.80;;;19.20;53.60;;;18.70;44.00;97834.91;5045794;28;20053;-38
2021/09/29 12:27:40;;;;;;;1.10;1.00;;;19.00;52.30;;;18.68;44.21;97833.47;5045905;28;20057;-36
2021/09/29 12:30:35;;;;;;;2.72;1.10;;;19.00;52.70;;;18.67;44.13;97843.44;5047184;28;20051;-36
2021/09/29 12:35:53;;;;;;;1.77;0.55;;;18.90;53.50;;;18.62;44.79;97829.72;5044973;28;20041;-36
2021/09/29 12:38:37;;;;;;;0.65;0.50;;;18.80;53.30;;;18.67;44.34;97856.09;5045950;28;20060;-36
2021/09/29 12:41:06;;;;;;;1.30;0.80;;;18.80;53.40;;;18.59;44.24;97843.66;5045714;28;20076;-36
2021/09/29 12:43:33;;;;;;;2.25;1.30;;;18.80;53.10;;;18.24;44.62;97849.22;5045492;28;20074;-37
2021/09/29 12:46:04;;;;;;;3.35;0.98;;;18.60;52.90;;;18.41;44.88;97840.72;5045688;28;20067;-37
2021/09/29 12:48:32;;;;;;;1.10;0.75;;;18.70;53.40;;;18.52;45.07;97842.81;5046029;28;20045;-37
2021/09/29 12:51:01;;;;;;;4.32;0.90;;;18.80;53.40;;;18.62;45.39;97826.22;5048202;28;20049;-37